sensor_id;sensor_type;location;lat;lon;timestamp;temperature;humidity
17146;DHT22;8688;54.444;18.444;2023-04-07T00:01:24;3.00;99.90
17146;DHT22;8688;54.444;18.444;2023-04-07T00:03:52;3.00;99.90
17146;DHT22;8688;54.444;18.444;2023-04-07T00:06:21;3.00;99.90
17146;DHT22;8688;54.444;18.444;2023-04-07T00:08:48;3.00;99.90
17146;DHT22;8688;54.444;18.444;2023-04-07T00:11:16;3.00;99.90
17146;DHT22;8688;54.444;18.444;2023-04-07T00:13:43;3.00;99.90
17146;DHT22;8688;54.444;18.444;2023-04-07T00:16:10;3.10;99.90
17146;DHT22;8688;54.444;18.444;2023-04-07T00:18:38;3.10;99.90
17146;DHT22;8688;54.444;18.444;2023-04-07T00:21:05;3.10;99.90
17146;DHT22;8688;54.444;18.444;2023-04-07T00:23:34;3.10;99.90
17146;DHT22;8688;54.444;18.444;2023-04-07T00:26:02;3.10;99.90
17146;DHT22;8688;54.444;18.444;2023-04-07T00:28:29;3.10;99.90
17146;DHT22;8688;54.444;18.444;2023-04-07T00:30:56;3.10;99.90
17146;DHT22;8688;54.444;18.444;2023-04-07T00:33:24;3.10;99.90
17146;DHT22;8688;54.444;18.444;2023-04-07T00:35:52;3.10;99.90
17146;DHT22;8688;54.444;18.444;2023-04-07T00:38:19;3.10;99.90
17146;DHT22;8688;54.444;18.444;2023-04-07T00:40:48;3.10;99.90
17146;DHT22;8688;54.444;18.444;2023-04-07T00:43:15;3.20;99.90
17146;DHT22;8688;54.444;18.444;2023-04-07T00:45:44;3.10;99.90
17146;DHT22;8688;54.444;18.444;2023-04-07T00:48:11;3.20;99.90
17146;DHT22;8688;54.444;18.444;2023-04-07T00:50:39;3.10;99.90
17146;DHT22;8688;54.444;18.444;2023-04-07T00:53:07;3.20;99.90
17146;DHT22;8688;54.444;18.444;2023-04-07T00:55:34;3.20;99.90
17146;DHT22;8688;54.444;18.444;2023-04-07T00:58:03;3.20;99.90
17146;DHT22;8688;54.444;18.444;2023-04-07T01:00:32;3.20;99.90
17146;DHT22;8688;54.444;18.444;2023-04-07T01:03:06;3.20;99.90
17146;DHT22;8688;54.444;18.444;2023-04-07T01:05:41;3.20;99.90
17146;DHT22;8688;54.444;18.444;2023-04-07T01:08:15;3.20;99.90
17146;DHT22;8688;54.444;18.444;2023-04-07T01:10:49;3.20;99.90
17146;DHT22;8688;54.444;18.444;2023-04-07T01:13:23;3.20;99.90
17146;DHT22;8688;54.444;18.444;2023-04-07T01:15:54;3.20;99.90
17146;DHT22;8688;54.444;18.444;2023-04-07T01:18:25;3.20;99.90
17146;DHT22;8688;54.444;18.444;2023-04-07T01:20:59;3.20;99.90
17146;DHT22;8688;54.444;18.444;2023-04-07T01:23:46;3.20;99.90
17146;DHT22;8688;54.444;18.444;2023-04-07T01:26:19;3.20;99.90
17146;DHT22;8688;54.444;18.444;2023-04-07T01:31:59;3.20;99.90
17146;DHT22;8688;54.444;18.444;2023-04-07T01:34:30;3.20;99.90
17146;DHT22;8688;54.444;18.444;2023-04-07T01:37:00;3.30;99.90
17146;DHT22;8688;54.444;18.444;2023-04-07T01:39:28;3.30;99.90
17146;DHT22;8688;54.444;18.444;2023-04-07T01:41:56;3.30;99.90
17146;DHT22;8688;54.444;18.444;2023-04-07T01:44:27;3.30;99.90
17146;DHT22;8688;54.444;18.444;2023-04-07T01:46:57;3.20;99.90
17146;DHT22;8688;54.444;18.444;2023-04-07T01:49:26;3.30;99.90
17146;DHT22;8688;54.444;18.444;2023-04-07T01:51:54;3.30;99.90
17146;DHT22;8688;54.444;18.444;2023-04-07T01:54:23;3.30;99.90
17146;DHT22;8688;54.444;18.444;2023-04-07T01:56:52;3.20;99.90
17146;DHT22;8688;54.444;18.444;2023-04-07T01:59:19;3.30;99.90
17146;DHT22;8688;54.444;18.444;2023-04-07T02:01:47;3.30;99.90
17146;DHT22;8688;54.444;18.444;2023-04-07T02:04:20;3.30;99.90
17146;DHT22;8688;54.444;18.444;2023-04-07T02:06:53;3.30;99.90
17146;DHT22;8688;54.444;18.444;2023-04-07T02:09:23;3.30;99.90
17146;DHT22;8688;54.444;18.444;2023-04-07T02:11:55;3.30;99.90
17146;DHT22;8688;54.444;18.444;2023-04-07T02:14:25;3.30;99.90
17146;DHT22;8688;54.444;18.444;2023-04-07T02:16:54;3.30;99.90
17146;DHT22;8688;54.444;18.444;2023-04-07T02:19:23;3.30;99.90
17146;DHT22;8688;54.444;18.444;2023-04-07T02:21:52;3.30;99.90
17146;DHT22;8688;54.444;18.444;2023-04-07T02:24:20;3.30;99.90
17146;DHT22;8688;54.444;18.444;2023-04-07T02:26:47;3.30;99.90
17146;DHT22;8688;54.444;18.444;2023-04-07T02:29:15;3.30;99.90
17146;DHT22;8688;54.444;18.444;2023-04-07T02:31:42;3.30;99.90
17146;DHT22;8688;54.444;18.444;2023-04-07T02:34:10;3.30;99.90
17146;DHT22;8688;54.444;18.444;2023-04-07T02:36:38;3.40;99.90
17146;DHT22;8688;54.444;18.444;2023-04-07T02:39:06;3.40;99.90
17146;DHT22;8688;54.444;18.444;2023-04-07T02:41:33;3.40;99.90
17146;DHT22;8688;54.444;18.444;2023-04-07T02:44:01;3.40;99.90
17146;DHT22;8688;54.444;18.444;2023-04-07T02:46:28;3.40;99.90
17146;DHT22;8688;54.444;18.444;2023-04-07T02:48:56;3.40;99.90
17146;DHT22;8688;54.444;18.444;2023-04-07T02:51:23;3.40;99.90
17146;DHT22;8688;54.444;18.444;2023-04-07T02:53:53;3.40;99.90
17146;DHT22;8688;54.444;18.444;2023-04-07T02:56:20;3.40;99.90
17146;DHT22;8688;54.444;18.444;2023-04-07T02:58:48;3.40;99.90
17146;DHT22;8688;54.444;18.444;2023-04-07T03:01:15;3.40;99.90
17146;DHT22;8688;54.444;18.444;2023-04-07T03:03:42;3.40;99.90
17146;DHT22;8688;54.444;18.444;2023-04-07T03:06:12;3.40;99.90
17146;DHT22;8688;54.444;18.444;2023-04-07T03:08:39;3.40;99.90
17146;DHT22;8688;54.444;18.444;2023-04-07T03:11:08;3.40;99.90
17146;DHT22;8688;54.444;18.444;2023-04-07T03:13:35;3.40;99.90
17146;DHT22;8688;54.444;18.444;2023-04-07T03:16:03;3.40;99.90
17146;DHT22;8688;54.444;18.444;2023-04-07T03:18:30;3.40;99.90
17146;DHT22;8688;54.444;18.444;2023-04-07T03:20:58;3.50;99.90
17146;DHT22;8688;54.444;18.444;2023-04-07T03:23:25;3.50;99.90
17146;DHT22;8688;54.444;18.444;2023-04-07T03:25:54;3.50;99.90
17146;DHT22;8688;54.444;18.444;2023-04-07T03:28:23;3.50;99.90
17146;DHT22;8688;54.444;18.444;2023-04-07T03:30:51;3.50;99.90
17146;DHT22;8688;54.444;18.444;2023-04-07T03:33:18;3.50;99.90
17146;DHT22;8688;54.444;18.444;2023-04-07T03:35:46;3.50;99.90
17146;DHT22;8688;54.444;18.444;2023-04-07T03:38:13;3.50;99.90
17146;DHT22;8688;54.444;18.444;2023-04-07T03:40:40;3.50;99.90
17146;DHT22;8688;54.444;18.444;2023-04-07T03:43:08;3.50;99.90
17146;DHT22;8688;54.444;18.444;2023-04-07T03:45:40;3.50;99.90
17146;DHT22;8688;54.444;18.444;2023-04-07T03:48:08;3.50;99.90
17146;DHT22;8688;54.444;18.444;2023-04-07T03:50:37;3.60;99.90
17146;DHT22;8688;54.444;18.444;2023-04-07T03:53:04;3.60;99.90
17146;DHT22;8688;54.444;18.444;2023-04-07T03:55:32;3.50;99.90
17146;DHT22;8688;54.444;18.444;2023-04-07T03:58:00;3.50;99.90
17146;DHT22;8688;54.444;18.444;2023-04-07T04:00:28;3.60;99.90
17146;DHT22;8688;54.444;18.444;2023-04-07T04:02:58;3.60;99.90
17146;DHT22;8688;54.444;18.444;2023-04-07T04:05:25;3.60;99.90
17146;DHT22;8688;54.444;18.444;2023-04-07T04:07:52;3.60;99.90
17146;DHT22;8688;54.444;18.444;2023-04-07T04:10:20;3.60;99.90
17146;DHT22;8688;54.444;18.444;2023-04-07T04:12:48;3.60;99.90
17146;DHT22;8688;54.444;18.444;2023-04-07T04:15:16;3.60;99.90
17146;DHT22;8688;54.444;18.444;2023-04-07T04:17:43;3.60;99.90
17146;DHT22;8688;54.444;18.444;2023-04-07T04:20:12;3.60;99.90
17146;DHT22;8688;54.444;18.444;2023-04-07T04:22:40;3.60;99.90
17146;DHT22;8688;54.444;18.444;2023-04-07T04:25:08;3.60;99.90
17146;DHT22;8688;54.444;18.444;2023-04-07T04:27:35;3.60;99.90
17146;DHT22;8688;54.444;18.444;2023-04-07T04:30:03;3.60;99.90
17146;DHT22;8688;54.444;18.444;2023-04-07T04:32:31;3.60;99.90
17146;DHT22;8688;54.444;18.444;2023-04-07T04:34:58;3.60;99.90
17146;DHT22;8688;54.444;18.444;2023-04-07T04:37:27;3.60;99.90
17146;DHT22;8688;54.444;18.444;2023-04-07T04:39:55;3.60;99.90
17146;DHT22;8688;54.444;18.444;2023-04-07T04:42:22;3.60;99.90
17146;DHT22;8688;54.444;18.444;2023-04-07T04:44:51;3.70;99.90
17146;DHT22;8688;54.444;18.444;2023-04-07T04:47:19;3.70;99.90
17146;DHT22;8688;54.444;18.444;2023-04-07T04:49:46;3.70;99.90
17146;DHT22;8688;54.444;18.444;2023-04-07T04:52:13;3.70;99.90
17146;DHT22;8688;54.444;18.444;2023-04-07T04:54:42;3.70;99.90
17146;DHT22;8688;54.444;18.444;2023-04-07T04:57:10;3.70;99.90
17146;DHT22;8688;54.444;18.444;2023-04-07T04:59:37;3.70;99.90
17146;DHT22;8688;54.444;18.444;2023-04-07T05:02:07;3.70;99.90
17146;DHT22;8688;54.444;18.444;2023-04-07T05:04:34;3.80;99.90
17146;DHT22;8688;54.444;18.444;2023-04-07T05:07:02;3.70;99.90
17146;DHT22;8688;54.444;18.444;2023-04-07T05:09:30;3.70;99.90
17146;DHT22;8688;54.444;18.444;2023-04-07T05:11:59;3.80;99.90
17146;DHT22;8688;54.444;18.444;2023-04-07T05:14:27;3.80;99.90
17146;DHT22;8688;54.444;18.444;2023-04-07T05:16:55;3.80;99.90
17146;DHT22;8688;54.444;18.444;2023-04-07T05:19:22;3.80;99.90
17146;DHT22;8688;54.444;18.444;2023-04-07T05:21:49;3.80;99.90
17146;DHT22;8688;54.444;18.444;2023-04-07T05:24:17;3.80;99.90
17146;DHT22;8688;54.444;18.444;2023-04-07T05:26:44;3.80;99.90
17146;DHT22;8688;54.444;18.444;2023-04-07T05:29:13;3.80;99.90
17146;DHT22;8688;54.444;18.444;2023-04-07T05:31:41;3.80;99.90
17146;DHT22;8688;54.444;18.444;2023-04-07T05:34:08;3.80;99.90
17146;DHT22;8688;54.444;18.444;2023-04-07T05:36:36;3.80;99.90
17146;DHT22;8688;54.444;18.444;2023-04-07T05:39:03;3.90;99.90
17146;DHT22;8688;54.444;18.444;2023-04-07T05:41:31;3.90;99.90
17146;DHT22;8688;54.444;18.444;2023-04-07T05:43:58;3.90;99.90
17146;DHT22;8688;54.444;18.444;2023-04-07T05:46:27;3.90;99.90
17146;DHT22;8688;54.444;18.444;2023-04-07T05:48:55;3.90;99.90
17146;DHT22;8688;54.444;18.444;2023-04-07T05:51:22;3.90;99.90
17146;DHT22;8688;54.444;18.444;2023-04-07T05:53:51;3.90;99.90
17146;DHT22;8688;54.444;18.444;2023-04-07T05:56:18;3.90;99.90
17146;DHT22;8688;54.444;18.444;2023-04-07T05:58:46;3.90;99.90
17146;DHT22;8688;54.444;18.444;2023-04-07T06:01:13;4.00;99.90
17146;DHT22;8688;54.444;18.444;2023-04-07T06:03:42;4.00;99.90
17146;DHT22;8688;54.444;18.444;2023-04-07T06:06:10;4.00;99.90
17146;DHT22;8688;54.444;18.444;2023-04-07T06:08:37;4.00;99.90
17146;DHT22;8688;54.444;18.444;2023-04-07T06:11:05;4.10;99.90
17146;DHT22;8688;54.444;18.444;2023-04-07T06:13:32;4.10;99.90
17146;DHT22;8688;54.444;18.444;2023-04-07T06:15:59;4.10;99.90
17146;DHT22;8688;54.444;18.444;2023-04-07T06:18:27;4.10;99.90
17146;DHT22;8688;54.444;18.444;2023-04-07T06:20:56;4.10;99.90
17146;DHT22;8688;54.444;18.444;2023-04-07T06:23:23;4.20;99.90
17146;DHT22;8688;54.444;18.444;2023-04-07T06:25:51;4.20;99.90
17146;DHT22;8688;54.444;18.444;2023-04-07T06:28:18;4.20;99.90
17146;DHT22;8688;54.444;18.444;2023-04-07T06:30:46;4.20;99.90
17146;DHT22;8688;54.444;18.444;2023-04-07T06:33:13;4.20;99.90
17146;DHT22;8688;54.444;18.444;2023-04-07T06:35:42;4.30;99.90
17146;DHT22;8688;54.444;18.444;2023-04-07T06:38:11;4.30;99.90
17146;DHT22;8688;54.444;18.444;2023-04-07T06:40:39;4.30;99.90
17146;DHT22;8688;54.444;18.444;2023-04-07T06:43:11;4.30;99.90
17146;DHT22;8688;54.444;18.444;2023-04-07T06:45:39;4.30;99.90
17146;DHT22;8688;54.444;18.444;2023-04-07T06:48:06;4.40;99.90
17146;DHT22;8688;54.444;18.444;2023-04-07T06:50:35;4.40;99.90
17146;DHT22;8688;54.444;18.444;2023-04-07T06:53:03;4.40;99.90
17146;DHT22;8688;54.444;18.444;2023-04-07T06:55:32;4.40;99.90
17146;DHT22;8688;54.444;18.444;2023-04-07T06:57:59;4.40;99.90
17146;DHT22;8688;54.444;18.444;2023-04-07T07:00:27;4.40;99.90
17146;DHT22;8688;54.444;18.444;2023-04-07T07:02:56;4.40;99.90
17146;DHT22;8688;54.444;18.444;2023-04-07T07:05:24;4.40;99.90
17146;DHT22;8688;54.444;18.444;2023-04-07T07:07:52;4.40;99.90
17146;DHT22;8688;54.444;18.444;2023-04-07T07:10:19;4.50;99.90
17146;DHT22;8688;54.444;18.444;2023-04-07T07:12:49;4.50;99.90
17146;DHT22;8688;54.444;18.444;2023-04-07T07:15:16;4.40;99.90
17146;DHT22;8688;54.444;18.444;2023-04-07T07:17:44;4.50;99.90
17146;DHT22;8688;54.444;18.444;2023-04-07T07:20:12;4.50;99.90
17146;DHT22;8688;54.444;18.444;2023-04-07T07:22:39;4.60;99.90
17146;DHT22;8688;54.444;18.444;2023-04-07T07:25:08;4.60;99.90
17146;DHT22;8688;54.444;18.444;2023-04-07T07:27:35;4.60;99.90
17146;DHT22;8688;54.444;18.444;2023-04-07T07:30:06;4.50;99.90
17146;DHT22;8688;54.444;18.444;2023-04-07T07:32:33;4.50;99.90
17146;DHT22;8688;54.444;18.444;2023-04-07T07:35:01;4.50;99.90
17146;DHT22;8688;54.444;18.444;2023-04-07T07:37:28;4.50;99.90
17146;DHT22;8688;54.444;18.444;2023-04-07T07:39:56;4.50;99.90
17146;DHT22;8688;54.444;18.444;2023-04-07T07:42:23;4.50;99.90
17146;DHT22;8688;54.444;18.444;2023-04-07T07:44:50;4.50;99.90
17146;DHT22;8688;54.444;18.444;2023-04-07T07:47:19;4.50;99.90
17146;DHT22;8688;54.444;18.444;2023-04-07T07:49:47;4.50;99.90
17146;DHT22;8688;54.444;18.444;2023-04-07T07:52:14;4.60;99.90
17146;DHT22;8688;54.444;18.444;2023-04-07T07:54:42;4.60;99.90
17146;DHT22;8688;54.444;18.444;2023-04-07T07:57:10;4.60;99.90
17146;DHT22;8688;54.444;18.444;2023-04-07T07:59:37;4.60;99.90
17146;DHT22;8688;54.444;18.444;2023-04-07T08:02:06;4.60;99.90
17146;DHT22;8688;54.444;18.444;2023-04-07T08:04:35;4.60;99.90
17146;DHT22;8688;54.444;18.444;2023-04-07T08:07:03;4.60;99.90
17146;DHT22;8688;54.444;18.444;2023-04-07T08:09:30;4.70;99.90
17146;DHT22;8688;54.444;18.444;2023-04-07T08:11:58;4.70;99.90
17146;DHT22;8688;54.444;18.444;2023-04-07T08:14:26;4.70;99.90
17146;DHT22;8688;54.444;18.444;2023-04-07T08:16:53;4.70;99.90
17146;DHT22;8688;54.444;18.444;2023-04-07T08:19:21;4.60;99.90
17146;DHT22;8688;54.444;18.444;2023-04-07T08:21:54;4.70;99.90
17146;DHT22;8688;54.444;18.444;2023-04-07T08:24:23;4.70;99.90
17146;DHT22;8688;54.444;18.444;2023-04-07T08:26:51;4.60;99.90
17146;DHT22;8688;54.444;18.444;2023-04-07T08:29:18;4.60;99.90
17146;DHT22;8688;54.444;18.444;2023-04-07T08:31:46;4.60;99.90
17146;DHT22;8688;54.444;18.444;2023-04-07T08:34:13;4.60;99.90
17146;DHT22;8688;54.444;18.444;2023-04-07T08:36:41;4.60;99.90
17146;DHT22;8688;54.444;18.444;2023-04-07T08:39:10;4.70;99.90
17146;DHT22;8688;54.444;18.444;2023-04-07T08:41:38;4.90;99.90
17146;DHT22;8688;54.444;18.444;2023-04-07T08:44:06;5.00;99.90
17146;DHT22;8688;54.444;18.444;2023-04-07T08:46:35;4.90;99.90
17146;DHT22;8688;54.444;18.444;2023-04-07T08:49:09;4.80;99.90
17146;DHT22;8688;54.444;18.444;2023-04-07T08:51:43;4.90;99.90
17146;DHT22;8688;54.444;18.444;2023-04-07T08:54:13;4.90;99.90
17146;DHT22;8688;54.444;18.444;2023-04-07T08:56:42;4.90;99.90
17146;DHT22;8688;54.444;18.444;2023-04-07T08:59:11;4.80;99.90
17146;DHT22;8688;54.444;18.444;2023-04-07T09:01:39;4.90;99.90
17146;DHT22;8688;54.444;18.444;2023-04-07T09:04:09;4.90;99.90
17146;DHT22;8688;54.444;18.444;2023-04-07T09:06:37;5.00;99.90
17146;DHT22;8688;54.444;18.444;2023-04-07T09:09:05;5.00;99.90
17146;DHT22;8688;54.444;18.444;2023-04-07T09:11:37;5.00;99.90
17146;DHT22;8688;54.444;18.444;2023-04-07T09:14:06;5.00;99.90
17146;DHT22;8688;54.444;18.444;2023-04-07T09:16:34;5.10;99.90
17146;DHT22;8688;54.444;18.444;2023-04-07T09:19:05;5.10;99.90
17146;DHT22;8688;54.444;18.444;2023-04-07T09:21:47;5.30;99.90
17146;DHT22;8688;54.444;18.444;2023-04-07T09:24:25;5.30;99.90
17146;DHT22;8688;54.444;18.444;2023-04-07T09:27:11;5.40;99.90
17146;DHT22;8688;54.444;18.444;2023-04-07T09:29:41;5.40;99.90
17146;DHT22;8688;54.444;18.444;2023-04-07T09:32:13;5.50;99.90
17146;DHT22;8688;54.444;18.444;2023-04-07T09:34:57;5.60;99.90
17146;DHT22;8688;54.444;18.444;2023-04-07T09:37:25;5.70;99.90
17146;DHT22;8688;54.444;18.444;2023-04-07T09:39:53;5.60;99.90
17146;DHT22;8688;54.444;18.444;2023-04-07T09:42:22;5.60;99.90
17146;DHT22;8688;54.444;18.444;2023-04-07T09:44:51;5.70;99.90
17146;DHT22;8688;54.444;18.444;2023-04-07T09:47:25;5.90;99.90
17146;DHT22;8688;54.444;18.444;2023-04-07T09:49:54;6.00;99.90
17146;DHT22;8688;54.444;18.444;2023-04-07T09:52:48;6.00;99.90
17146;DHT22;8688;54.444;18.444;2023-04-07T09:55:18;6.00;99.90
17146;DHT22;8688;54.444;18.444;2023-04-07T09:57:48;6.10;99.90
17146;DHT22;8688;54.444;18.444;2023-04-07T10:00:18;6.10;99.90
17146;DHT22;8688;54.444;18.444;2023-04-07T10:02:46;6.10;99.90
17146;DHT22;8688;54.444;18.444;2023-04-07T10:05:16;6.00;99.90
17146;DHT22;8688;54.444;18.444;2023-04-07T10:07:46;6.10;99.90
17146;DHT22;8688;54.444;18.444;2023-04-07T10:10:14;6.20;99.90
17146;DHT22;8688;54.444;18.444;2023-04-07T10:12:43;6.20;99.90
17146;DHT22;8688;54.444;18.444;2023-04-07T10:15:14;6.30;99.90
17146;DHT22;8688;54.444;18.444;2023-04-07T10:17:47;6.40;99.90
17146;DHT22;8688;54.444;18.444;2023-04-07T10:20:16;6.60;99.90
17146;DHT22;8688;54.444;18.444;2023-04-07T10:22:46;6.50;99.90
17146;DHT22;8688;54.444;18.444;2023-04-07T10:25:18;6.40;99.90
17146;DHT22;8688;54.444;18.444;2023-04-07T10:27:50;6.40;99.90
17146;DHT22;8688;54.444;18.444;2023-04-07T10:30:25;6.30;99.90
17146;DHT22;8688;54.444;18.444;2023-04-07T10:32:54;6.30;99.90
17146;DHT22;8688;54.444;18.444;2023-04-07T10:35:22;6.30;99.90
17146;DHT22;8688;54.444;18.444;2023-04-07T10:38:09;6.50;99.90
17146;DHT22;8688;54.444;18.444;2023-04-07T10:40:39;6.60;99.90
17146;DHT22;8688;54.444;18.444;2023-04-07T10:43:08;6.60;99.90
17146;DHT22;8688;54.444;18.444;2023-04-07T10:45:54;6.70;99.90
17146;DHT22;8688;54.444;18.444;2023-04-07T10:48:24;6.70;99.90
17146;DHT22;8688;54.444;18.444;2023-04-07T10:51:16;6.80;99.90
17146;DHT22;8688;54.444;18.444;2023-04-07T10:57:08;6.90;99.90
17146;DHT22;8688;54.444;18.444;2023-04-07T10:59:38;6.90;99.90
17146;DHT22;8688;54.444;18.444;2023-04-07T11:02:36;6.90;99.90
17146;DHT22;8688;54.444;18.444;2023-04-07T11:05:04;6.90;99.90
17146;DHT22;8688;54.444;18.444;2023-04-07T11:07:47;6.80;99.90
17146;DHT22;8688;54.444;18.444;2023-04-07T11:10:16;6.70;99.90
17146;DHT22;8688;54.444;18.444;2023-04-07T11:12:56;6.90;99.90
17146;DHT22;8688;54.444;18.444;2023-04-07T11:15:24;6.90;99.90
17146;DHT22;8688;54.444;18.444;2023-04-07T11:18:12;6.90;99.90
17146;DHT22;8688;54.444;18.444;2023-04-07T11:20:41;6.90;99.90
17146;DHT22;8688;54.444;18.444;2023-04-07T11:23:12;7.00;99.90
17146;DHT22;8688;54.444;18.444;2023-04-07T11:25:44;7.20;99.90
17146;DHT22;8688;54.444;18.444;2023-04-07T11:28:12;7.40;99.90
17146;DHT22;8688;54.444;18.444;2023-04-07T11:30:45;7.30;99.90
17146;DHT22;8688;54.444;18.444;2023-04-07T11:33:22;7.20;99.90
17146;DHT22;8688;54.444;18.444;2023-04-07T11:35:56;7.40;99.90
17146;DHT22;8688;54.444;18.444;2023-04-07T11:38:25;7.30;99.90
17146;DHT22;8688;54.444;18.444;2023-04-07T11:40:55;7.20;99.90
17146;DHT22;8688;54.444;18.444;2023-04-07T11:43:24;7.10;99.90
17146;DHT22;8688;54.444;18.444;2023-04-07T11:46:06;7.10;99.90
17146;DHT22;8688;54.444;18.444;2023-04-07T11:48:39;7.20;99.90
17146;DHT22;8688;54.444;18.444;2023-04-07T11:51:15;7.20;99.90
17146;DHT22;8688;54.444;18.444;2023-04-07T11:53:46;7.30;99.90
17146;DHT22;8688;54.444;18.444;2023-04-07T11:56:17;7.50;99.90
17146;DHT22;8688;54.444;18.444;2023-04-07T11:58:50;7.50;99.90
17146;DHT22;8688;54.444;18.444;2023-04-07T12:01:19;7.60;19.70
17146;DHT22;8688;54.444;18.444;2023-04-07T12:03:58;7.70;24.30
17146;DHT22;8688;54.444;18.444;2023-04-07T12:06:27;7.90;1.00
17146;DHT22;8688;54.444;18.444;2023-04-07T12:08:55;8.00;1.00
17146;DHT22;8688;54.444;18.444;2023-04-07T12:11:23;8.00;1.00
17146;DHT22;8688;54.444;18.444;2023-04-07T12:13:51;7.90;1.00
17146;DHT22;8688;54.444;18.444;2023-04-07T12:16:21;8.00;1.00
17146;DHT22;8688;54.444;18.444;2023-04-07T12:18:52;8.20;1.00
17146;DHT22;8688;54.444;18.444;2023-04-07T12:21:27;8.40;1.00
17146;DHT22;8688;54.444;18.444;2023-04-07T12:23:56;8.40;1.00
17146;DHT22;8688;54.444;18.444;2023-04-07T12:26:24;8.40;1.00
17146;DHT22;8688;54.444;18.444;2023-04-07T12:28:51;8.40;1.00
17146;DHT22;8688;54.444;18.444;2023-04-07T12:31:22;8.50;1.00
17146;DHT22;8688;54.444;18.444;2023-04-07T12:33:50;8.50;1.00
17146;DHT22;8688;54.444;18.444;2023-04-07T12:36:20;8.60;1.00
17146;DHT22;8688;54.444;18.444;2023-04-07T12:38:48;8.60;1.00
17146;DHT22;8688;54.444;18.444;2023-04-07T12:41:15;8.70;1.00
17146;DHT22;8688;54.444;18.444;2023-04-07T12:43:43;8.80;1.00
17146;DHT22;8688;54.444;18.444;2023-04-07T12:46:11;8.90;1.00
17146;DHT22;8688;54.444;18.444;2023-04-07T12:48:38;8.90;1.00
17146;DHT22;8688;54.444;18.444;2023-04-07T12:51:07;9.10;1.00
17146;DHT22;8688;54.444;18.444;2023-04-07T12:53:36;9.30;99.90
17146;DHT22;8688;54.444;18.444;2023-04-07T12:56:04;9.50;96.40
17146;DHT22;8688;54.444;18.444;2023-04-07T12:58:32;9.50;99.90
17146;DHT22;8688;54.444;18.444;2023-04-07T13:00:59;9.50;1.00
17146;DHT22;8688;54.444;18.444;2023-04-07T13:03:29;9.60;1.00
17146;DHT22;8688;54.444;18.444;2023-04-07T13:05:59;9.90;1.00
17146;DHT22;8688;54.444;18.444;2023-04-07T13:08:28;9.90;97.30
17146;DHT22;8688;54.444;18.444;2023-04-07T13:11:01;10.00;20.90
17146;DHT22;8688;54.444;18.444;2023-04-07T13:13:37;9.90;1.00
17146;DHT22;8688;54.444;18.444;2023-04-07T13:16:14;9.90;1.00
17146;DHT22;8688;54.444;18.444;2023-04-07T13:18:52;9.90;1.00
17146;DHT22;8688;54.444;18.444;2023-04-07T13:21:27;10.00;1.00
17146;DHT22;8688;54.444;18.444;2023-04-07T13:24:01;9.90;1.00
17146;DHT22;8688;54.444;18.444;2023-04-07T13:26:35;9.70;1.00
17146;DHT22;8688;54.444;18.444;2023-04-07T13:29:05;9.70;1.00
17146;DHT22;8688;54.444;18.444;2023-04-07T13:31:39;9.50;1.00
17146;DHT22;8688;54.444;18.444;2023-04-07T13:34:09;9.50;1.00
17146;DHT22;8688;54.444;18.444;2023-04-07T13:36:42;9.50;1.00
17146;DHT22;8688;54.444;18.444;2023-04-07T13:39:14;9.50;1.00
17146;DHT22;8688;54.444;18.444;2023-04-07T13:41:44;9.40;1.00
17146;DHT22;8688;54.444;18.444;2023-04-07T13:44:16;9.20;1.00
17146;DHT22;8688;54.444;18.444;2023-04-07T13:46:44;9.20;1.00
17146;DHT22;8688;54.444;18.444;2023-04-07T13:49:14;9.20;1.00
17146;DHT22;8688;54.444;18.444;2023-04-07T13:51:48;9.20;1.00
17146;DHT22;8688;54.444;18.444;2023-04-07T13:54:17;9.30;1.00
17146;DHT22;8688;54.444;18.444;2023-04-07T13:56:46;9.30;1.00
17146;DHT22;8688;54.444;18.444;2023-04-07T13:59:15;9.30;1.00
17146;DHT22;8688;54.444;18.444;2023-04-07T14:01:44;9.20;1.00
17146;DHT22;8688;54.444;18.444;2023-04-07T14:04:13;9.30;1.00
17146;DHT22;8688;54.444;18.444;2023-04-07T14:06:41;9.40;1.00
17146;DHT22;8688;54.444;18.444;2023-04-07T14:09:09;9.30;1.00
17146;DHT22;8688;54.444;18.444;2023-04-07T14:11:37;9.30;99.90
17146;DHT22;8688;54.444;18.444;2023-04-07T14:14:07;9.20;99.90
17146;DHT22;8688;54.444;18.444;2023-04-07T14:16:38;9.10;99.90
17146;DHT22;8688;54.444;18.444;2023-04-07T14:19:06;9.20;1.00
17146;DHT22;8688;54.444;18.444;2023-04-07T14:21:34;9.20;99.90
17146;DHT22;8688;54.444;18.444;2023-04-07T14:24:03;9.10;99.90
17146;DHT22;8688;54.444;18.444;2023-04-07T14:26:32;9.10;99.90
17146;DHT22;8688;54.444;18.444;2023-04-07T14:29:02;9.10;99.90
17146;DHT22;8688;54.444;18.444;2023-04-07T14:31:33;9.20;1.00
17146;DHT22;8688;54.444;18.444;2023-04-07T14:34:03;9.30;1.00
17146;DHT22;8688;54.444;18.444;2023-04-07T14:36:32;9.20;99.90
17146;DHT22;8688;54.444;18.444;2023-04-07T14:39:01;9.10;1.00
17146;DHT22;8688;54.444;18.444;2023-04-07T14:41:30;9.10;1.00
17146;DHT22;8688;54.444;18.444;2023-04-07T14:43:59;9.10;1.00
17146;DHT22;8688;54.444;18.444;2023-04-07T14:46:28;9.00;1.00
17146;DHT22;8688;54.444;18.444;2023-04-07T14:48:58;9.00;1.00
17146;DHT22;8688;54.444;18.444;2023-04-07T14:51:25;9.00;1.00
17146;DHT22;8688;54.444;18.444;2023-04-07T14:53:53;9.00;1.00
17146;DHT22;8688;54.444;18.444;2023-04-07T14:56:25;9.00;1.00
17146;DHT22;8688;54.444;18.444;2023-04-07T14:58:53;9.10;1.00
17146;DHT22;8688;54.444;18.444;2023-04-07T15:01:20;9.00;1.00
17146;DHT22;8688;54.444;18.444;2023-04-07T15:03:49;9.00;1.00
17146;DHT22;8688;54.444;18.444;2023-04-07T15:06:18;9.00;1.00
17146;DHT22;8688;54.444;18.444;2023-04-07T15:08:46;9.00;1.00
17146;DHT22;8688;54.444;18.444;2023-04-07T15:11:14;9.00;1.00
17146;DHT22;8688;54.444;18.444;2023-04-07T15:13:45;9.00;1.00
17146;DHT22;8688;54.444;18.444;2023-04-07T15:16:16;9.10;1.00
17146;DHT22;8688;54.444;18.444;2023-04-07T15:18:45;9.10;1.00
17146;DHT22;8688;54.444;18.444;2023-04-07T15:21:19;9.00;1.00
17146;DHT22;8688;54.444;18.444;2023-04-07T15:23:47;9.00;1.00
17146;DHT22;8688;54.444;18.444;2023-04-07T15:26:16;8.90;1.00
17146;DHT22;8688;54.444;18.444;2023-04-07T15:28:44;8.90;1.00
17146;DHT22;8688;54.444;18.444;2023-04-07T15:31:12;8.90;1.00
17146;DHT22;8688;54.444;18.444;2023-04-07T15:33:40;8.80;1.00
17146;DHT22;8688;54.444;18.444;2023-04-07T15:36:09;8.80;1.00
17146;DHT22;8688;54.444;18.444;2023-04-07T15:38:37;8.80;1.00
17146;DHT22;8688;54.444;18.444;2023-04-07T15:41:05;8.80;1.00
17146;DHT22;8688;54.444;18.444;2023-04-07T15:43:36;8.90;1.00
17146;DHT22;8688;54.444;18.444;2023-04-07T15:46:05;8.90;9.10
17146;DHT22;8688;54.444;18.444;2023-04-07T15:48:33;8.90;23.90
17146;DHT22;8688;54.444;18.444;2023-04-07T15:51:00;8.80;29.40
17146;DHT22;8688;54.444;18.444;2023-04-07T15:53:29;8.80;44.20
17146;DHT22;8688;54.444;18.444;2023-04-07T15:56:00;8.80;57.50
17146;DHT22;8688;54.444;18.444;2023-04-07T15:58:30;8.80;98.40
17146;DHT22;8688;54.444;18.444;2023-04-07T16:03:50;8.70;99.90
17146;DHT22;8688;54.444;18.444;2023-04-07T16:06:18;8.70;99.90
17146;DHT22;8688;54.444;18.444;2023-04-07T16:08:45;8.70;99.90
17146;DHT22;8688;54.444;18.444;2023-04-07T16:11:14;8.70;99.90
17146;DHT22;8688;54.444;18.444;2023-04-07T16:13:41;8.80;99.90